sensor_id;sensor_type;location;lat;lon;timestamp;P1;durP1;ratioP1;P2;durP2;ratioP2
17854;SDS011;9053;53.358;6.382;2024-02-14T00:00:51;8.47;;;5.10;;
17854;SDS011;9053;53.358;6.382;2024-02-14T00:03:23;7.43;;;4.73;;
17854;SDS011;9053;53.358;6.382;2024-02-14T00:05:53;10.03;;;5.90;;
17854;SDS011;9053;53.358;6.382;2024-02-14T00:08:26;6.07;;;4.83;;
17854;SDS011;9053;53.358;6.382;2024-02-14T00:10:59;7.13;;;4.97;;
17854;SDS011;9053;53.358;6.382;2024-02-14T00:13:33;7.40;;;5.80;;
17854;SDS011;9053;53.358;6.382;2024-02-14T00:16:10;7.43;;;5.23;;
17854;SDS011;9053;53.358;6.382;2024-02-14T00:18:44;7.03;;;5.30;;
17854;SDS011;9053;53.358;6.382;2024-02-14T00:21:24;9.07;;;5.73;;
17854;SDS011;9053;53.358;6.382;2024-02-14T00:23:54;6.90;;;5.40;;
17854;SDS011;9053;53.358;6.382;2024-02-14T00:26:33;9.40;;;5.30;;
17854;SDS011;9053;53.358;6.382;2024-02-14T00:29:06;8.53;;;5.80;;
17854;SDS011;9053;53.358;6.382;2024-02-14T00:31:54;6.30;;;4.97;;
17854;SDS011;9053;53.358;6.382;2024-02-14T00:34:28;7.10;;;4.97;;
17854;SDS011;9053;53.358;6.382;2024-02-14T00:37:04;7.70;;;5.50;;
17854;SDS011;9053;53.358;6.382;2024-02-14T00:39:42;6.90;;;5.37;;
17854;SDS011;9053;53.358;6.382;2024-02-14T00:42:27;9.37;;;5.73;;
17854;SDS011;9053;53.358;6.382;2024-02-14T00:44:59;9.43;;;6.00;;
17854;SDS011;9053;53.358;6.382;2024-02-14T00:47:32;7.77;;;5.63;;
17854;SDS011;9053;53.358;6.382;2024-02-14T00:50:03;8.73;;;5.57;;
17854;SDS011;9053;53.358;6.382;2024-02-14T00:52:44;8.30;;;6.47;;
17854;SDS011;9053;53.358;6.382;2024-02-14T00:55:14;8.57;;;6.10;;
17854;SDS011;9053;53.358;6.382;2024-02-14T00:57:46;7.37;;;5.80;;
17854;SDS011;9053;53.358;6.382;2024-02-14T01:00:17;6.90;;;6.17;;
17854;SDS011;9053;53.358;6.382;2024-02-14T01:02:56;8.20;;;5.63;;
17854;SDS011;9053;53.358;6.382;2024-02-14T01:05:26;7.17;;;6.03;;
17854;SDS011;9053;53.358;6.382;2024-02-14T01:08:01;7.90;;;5.80;;
17854;SDS011;9053;53.358;6.382;2024-02-14T01:10:38;6.97;;;5.87;;
17854;SDS011;9053;53.358;6.382;2024-02-14T01:13:17;8.50;;;6.70;;
17854;SDS011;9053;53.358;6.382;2024-02-14T01:15:47;7.13;;;6.00;;
17854;SDS011;9053;53.358;6.382;2024-02-14T01:18:35;7.30;;;6.27;;
17854;SDS011;9053;53.358;6.382;2024-02-14T01:21:07;6.03;;;5.43;;
17854;SDS011;9053;53.358;6.382;2024-02-14T01:23:40;6.53;;;5.63;;
17854;SDS011;9053;53.358;6.382;2024-02-14T01:26:19;6.60;;;5.93;;
17854;SDS011;9053;53.358;6.382;2024-02-14T01:28:54;6.90;;;6.13;;
17854;SDS011;9053;53.358;6.382;2024-02-14T01:31:24;6.23;;;5.63;;
17854;SDS011;9053;53.358;6.382;2024-02-14T01:33:59;6.57;;;5.87;;
17854;SDS011;9053;53.358;6.382;2024-02-14T01:36:31;7.63;;;6.00;;
17854;SDS011;9053;53.358;6.382;2024-02-14T01:39:06;7.47;;;5.67;;
17854;SDS011;9053;53.358;6.382;2024-02-14T01:41:44;7.77;;;6.03;;
17854;SDS011;9053;53.358;6.382;2024-02-14T01:44:18;6.80;;;5.60;;
17854;SDS011;9053;53.358;6.382;2024-02-14T01:46:51;8.13;;;5.73;;
17854;SDS011;9053;53.358;6.382;2024-02-14T01:49:27;7.40;;;5.90;;
17854;SDS011;9053;53.358;6.382;2024-02-14T01:51:58;7.17;;;5.77;;
17854;SDS011;9053;53.358;6.382;2024-02-14T01:54:54;5.77;;;5.00;;
17854;SDS011;9053;53.358;6.382;2024-02-14T01:57:24;5.90;;;5.30;;
17854;SDS011;9053;53.358;6.382;2024-02-14T01:59:55;5.77;;;4.67;;
17854;SDS011;9053;53.358;6.382;2024-02-14T02:02:26;5.57;;;4.93;;
17854;SDS011;9053;53.358;6.382;2024-02-14T02:05:03;5.93;;;5.23;;
17854;SDS011;9053;53.358;6.382;2024-02-14T02:07:38;5.70;;;5.07;;
17854;SDS011;9053;53.358;6.382;2024-02-14T02:10:11;5.10;;;4.60;;
17854;SDS011;9053;53.358;6.382;2024-02-14T02:12:43;5.97;;;4.77;;
17854;SDS011;9053;53.358;6.382;2024-02-14T02:18:00;5.17;;;4.67;;
17854;SDS011;9053;53.358;6.382;2024-02-14T02:20:45;5.10;;;4.60;;
17854;SDS011;9053;53.358;6.382;2024-02-14T02:23:18;5.63;;;5.13;;
17854;SDS011;9053;53.358;6.382;2024-02-14T02:25:48;4.93;;;4.43;;
17854;SDS011;9053;53.358;6.382;2024-02-14T02:28:28;5.20;;;4.70;;
17854;SDS011;9053;53.358;6.382;2024-02-14T02:31:00;5.00;;;4.50;;
17854;SDS011;9053;53.358;6.382;2024-02-14T02:33:30;5.53;;;5.03;;
17854;SDS011;9053;53.358;6.382;2024-02-14T02:36:08;4.53;;;4.13;;
17854;SDS011;9053;53.358;6.382;2024-02-14T02:38:45;5.20;;;4.70;;
17854;SDS011;9053;53.358;6.382;2024-02-14T02:41:16;5.53;;;4.67;;
17854;SDS011;9053;53.358;6.382;2024-02-14T02:43:52;5.27;;;4.73;;
17854;SDS011;9053;53.358;6.382;2024-02-14T02:46:27;5.13;;;4.63;;
17854;SDS011;9053;53.358;6.382;2024-02-14T02:49:14;4.97;;;4.47;;
17854;SDS011;9053;53.358;6.382;2024-02-14T02:51:49;5.43;;;4.53;;
17854;SDS011;9053;53.358;6.382;2024-02-14T02:54:22;5.53;;;4.90;;
17854;SDS011;9053;53.358;6.382;2024-02-14T02:56:56;4.77;;;4.20;;
17854;SDS011;9053;53.358;6.382;2024-02-14T02:59:32;4.67;;;4.27;;
17854;SDS011;9053;53.358;6.382;2024-02-14T03:02:13;5.17;;;4.67;;
17854;SDS011;9053;53.358;6.382;2024-02-14T03:04:43;4.50;;;4.10;;
17854;SDS011;9053;53.358;6.382;2024-02-14T03:07:18;5.40;;;4.33;;
17854;SDS011;9053;53.358;6.382;2024-02-14T03:09:52;5.17;;;4.67;;
17854;SDS011;9053;53.358;6.382;2024-02-14T03:12:22;5.20;;;4.70;;
17854;SDS011;9053;53.358;6.382;2024-02-14T03:14:57;4.93;;;4.20;;
17854;SDS011;9053;53.358;6.382;2024-02-14T03:17:37;5.20;;;4.37;;
17854;SDS011;9053;53.358;6.382;2024-02-14T03:20:11;5.87;;;4.70;;
17854;SDS011;9053;53.358;6.382;2024-02-14T03:22:49;4.37;;;3.97;;
17854;SDS011;9053;53.358;6.382;2024-02-14T03:25:28;4.77;;;4.30;;
17854;SDS011;9053;53.358;6.382;2024-02-14T03:28:01;5.13;;;4.67;;
17854;SDS011;9053;53.358;6.382;2024-02-14T03:30:47;4.83;;;4.33;;
17854;SDS011;9053;53.358;6.382;2024-02-14T03:33:17;5.30;;;4.80;;
17854;SDS011;9053;53.358;6.382;2024-02-14T03:35:50;4.97;;;4.43;;
17854;SDS011;9053;53.358;6.382;2024-02-14T03:38:27;5.53;;;4.87;;
17854;SDS011;9053;53.358;6.382;2024-02-14T03:41:03;5.33;;;4.83;;
17854;SDS011;9053;53.358;6.382;2024-02-14T03:43:37;5.00;;;4.50;;
17854;SDS011;9053;53.358;6.382;2024-02-14T03:46:22;4.90;;;4.40;;
17854;SDS011;9053;53.358;6.382;2024-02-14T03:48:56;5.50;;;4.87;;
17854;SDS011;9053;53.358;6.382;2024-02-14T03:51:32;5.27;;;4.60;;
17854;SDS011;9053;53.358;6.382;2024-02-14T03:54:04;4.30;;;3.87;;
17854;SDS011;9053;53.358;6.382;2024-02-14T03:56:38;5.60;;;4.33;;
17854;SDS011;9053;53.358;6.382;2024-02-14T03:59:16;4.67;;;4.17;;
17854;SDS011;9053;53.358;6.382;2024-02-14T04:01:53;5.90;;;4.83;;
17854;SDS011;9053;53.358;6.382;2024-02-14T04:04:26;6.03;;;5.37;;
17854;SDS011;9053;53.358;6.382;2024-02-14T04:06:59;5.90;;;4.80;;
17854;SDS011;9053;53.358;6.382;2024-02-14T04:09:29;7.00;;;5.70;;
17854;SDS011;9053;53.358;6.382;2024-02-14T04:12:07;6.27;;;5.60;;
17854;SDS011;9053;53.358;6.382;2024-02-14T04:14:40;6.10;;;5.50;;
17854;SDS011;9053;53.358;6.382;2024-02-14T04:17:10;8.50;;;6.03;;
17854;SDS011;9053;53.358;6.382;2024-02-14T04:19:48;6.73;;;5.80;;
17854;SDS011;9053;53.358;6.382;2024-02-14T04:22:18;6.83;;;5.90;;
17854;SDS011;9053;53.358;6.382;2024-02-14T04:24:54;7.00;;;6.17;;
17854;SDS011;9053;53.358;6.382;2024-02-14T04:27:31;6.87;;;5.63;;
17854;SDS011;9053;53.358;6.382;2024-02-14T04:30:02;7.10;;;6.10;;
17854;SDS011;9053;53.358;6.382;2024-02-14T04:32:34;7.60;;;6.20;;
17854;SDS011;9053;53.358;6.382;2024-02-14T04:35:05;6.83;;;5.60;;
17854;SDS011;9053;53.358;6.382;2024-02-14T04:37:35;6.03;;;5.43;;
17854;SDS011;9053;53.358;6.382;2024-02-14T04:40:10;5.80;;;5.20;;
17854;SDS011;9053;53.358;6.382;2024-02-14T04:42:58;6.63;;;5.47;;
17854;SDS011;9053;53.358;6.382;2024-02-14T04:45:36;6.30;;;5.23;;
17854;SDS011;9053;53.358;6.382;2024-02-14T04:48:10;6.60;;;5.20;;
17854;SDS011;9053;53.358;6.382;2024-02-14T04:50:42;6.03;;;5.37;;
17854;SDS011;9053;53.358;6.382;2024-02-14T04:53:12;7.00;;;5.20;;
17854;SDS011;9053;53.358;6.382;2024-02-14T04:55:48;6.73;;;5.23;;
17854;SDS011;9053;53.358;6.382;2024-02-14T04:58:25;5.10;;;4.60;;
17854;SDS011;9053;53.358;6.382;2024-02-14T05:00:55;5.70;;;4.60;;
17854;SDS011;9053;53.358;6.382;2024-02-14T05:03:25;5.97;;;4.63;;
17854;SDS011;9053;53.358;6.382;2024-02-14T05:06:05;6.73;;;5.03;;
17854;SDS011;9053;53.358;6.382;2024-02-14T05:08:39;5.53;;;4.90;;
17854;SDS011;9053;53.358;6.382;2024-02-14T05:11:12;5.63;;;4.50;;
17854;SDS011;9053;53.358;6.382;2024-02-14T05:13:45;5.40;;;4.70;;
17854;SDS011;9053;53.358;6.382;2024-02-14T05:16:21;6.23;;;4.27;;
17854;SDS011;9053;53.358;6.382;2024-02-14T05:18:54;5.33;;;4.20;;
17854;SDS011;9053;53.358;6.382;2024-02-14T05:21:30;7.20;;;4.57;;
17854;SDS011;9053;53.358;6.382;2024-02-14T05:24:15;6.63;;;4.63;;
17854;SDS011;9053;53.358;6.382;2024-02-14T05:26:48;8.20;;;5.43;;
17854;SDS011;9053;53.358;6.382;2024-02-14T05:29:26;7.20;;;4.63;;
17854;SDS011;9053;53.358;6.382;2024-02-14T05:32:02;7.63;;;5.33;;
17854;SDS011;9053;53.358;6.382;2024-02-14T05:34:36;10.50;;;5.83;;
17854;SDS011;9053;53.358;6.382;2024-02-14T05:37:09;9.00;;;5.63;;
17854;SDS011;9053;53.358;6.382;2024-02-14T05:39:40;10.40;;;6.00;;
17854;SDS011;9053;53.358;6.382;2024-02-14T05:42:31;11.50;;;6.30;;
17854;SDS011;9053;53.358;6.382;2024-02-14T05:45:06;10.90;;;6.20;;
17854;SDS011;9053;53.358;6.382;2024-02-14T05:47:39;10.60;;;5.80;;
17854;SDS011;9053;53.358;6.382;2024-02-14T05:50:12;11.00;;;5.90;;
17854;SDS011;9053;53.358;6.382;2024-02-14T05:52:47;12.07;;;6.23;;
17854;SDS011;9053;53.358;6.382;2024-02-14T05:55:17;8.53;;;5.23;;
17854;SDS011;9053;53.358;6.382;2024-02-14T05:57:49;10.30;;;5.50;;
17854;SDS011;9053;53.358;6.382;2024-02-14T06:00:24;9.97;;;5.07;;
17854;SDS011;9053;53.358;6.382;2024-02-14T06:02:55;10.20;;;4.70;;
17854;SDS011;9053;53.358;6.382;2024-02-14T06:05:26;9.60;;;4.50;;
17854;SDS011;9053;53.358;6.382;2024-02-14T06:08:03;9.60;;;4.53;;
17854;SDS011;9053;53.358;6.382;2024-02-14T06:10:33;10.50;;;4.80;;
17854;SDS011;9053;53.358;6.382;2024-02-14T06:13:05;7.13;;;4.33;;
17854;SDS011;9053;53.358;6.382;2024-02-14T06:15:51;9.83;;;4.23;;
17854;SDS011;9053;53.358;6.382;2024-02-14T06:18:24;6.80;;;4.10;;
17854;SDS011;9053;53.358;6.382;2024-02-14T06:21:01;6.63;;;4.13;;
17854;SDS011;9053;53.358;6.382;2024-02-14T06:23:34;8.60;;;4.40;;
17854;SDS011;9053;53.358;6.382;2024-02-14T06:26:06;6.97;;;4.27;;
17854;SDS011;9053;53.358;6.382;2024-02-14T06:28:39;6.77;;;3.10;;
17854;SDS011;9053;53.358;6.382;2024-02-14T06:31:22;8.33;;;3.90;;
17854;SDS011;9053;53.358;6.382;2024-02-14T06:33:52;8.87;;;4.10;;
17854;SDS011;9053;53.358;6.382;2024-02-14T06:36:27;8.00;;;3.73;;
17854;SDS011;9053;53.358;6.382;2024-02-14T06:39:00;10.60;;;5.37;;
17854;SDS011;9053;53.358;6.382;2024-02-14T06:41:32;12.07;;;4.70;;
17854;SDS011;9053;53.358;6.382;2024-02-14T06:44:02;10.20;;;5.17;;
17854;SDS011;9053;53.358;6.382;2024-02-14T06:46:40;15.97;;;5.03;;
17854;SDS011;9053;53.358;6.382;2024-02-14T06:49:10;13.47;;;4.83;;
17854;SDS011;9053;53.358;6.382;2024-02-14T06:51:44;17.30;;;5.90;;
17854;SDS011;9053;53.358;6.382;2024-02-14T06:54:14;19.63;;;6.03;;
17854;SDS011;9053;53.358;6.382;2024-02-14T06:56:50;16.47;;;6.03;;
17854;SDS011;9053;53.358;6.382;2024-02-14T06:59:21;24.07;;;6.90;;
17854;SDS011;9053;53.358;6.382;2024-02-14T07:01:58;17.33;;;6.17;;
17854;SDS011;9053;53.358;6.382;2024-02-14T07:04:39;24.40;;;6.53;;
17854;SDS011;9053;53.358;6.382;2024-02-14T07:07:09;22.40;;;7.20;;
17854;SDS011;9053;53.358;6.382;2024-02-14T07:09:39;20.67;;;6.90;;
17854;SDS011;9053;53.358;6.382;2024-02-14T07:12:10;18.80;;;6.90;;
17854;SDS011;9053;53.358;6.382;2024-02-14T07:14:45;19.87;;;7.17;;
17854;SDS011;9053;53.358;6.382;2024-02-14T07:17:18;23.73;;;6.57;;
17854;SDS011;9053;53.358;6.382;2024-02-14T07:19:48;21.70;;;5.97;;
17854;SDS011;9053;53.358;6.382;2024-02-14T07:22:21;19.03;;;6.57;;
17854;SDS011;9053;53.358;6.382;2024-02-14T07:24:51;22.43;;;6.23;;
17854;SDS011;9053;53.358;6.382;2024-02-14T07:27:23;26.40;;;7.03;;
17854;SDS011;9053;53.358;6.382;2024-02-14T07:29:56;22.77;;;6.87;;
17854;SDS011;9053;53.358;6.382;2024-02-14T07:32:29;28.77;;;6.37;;
17854;SDS011;9053;53.358;6.382;2024-02-14T07:35:01;28.37;;;8.20;;
17854;SDS011;9053;53.358;6.382;2024-02-14T07:37:32;23.70;;;6.47;;
17854;SDS011;9053;53.358;6.382;2024-02-14T07:40:05;29.73;;;8.20;;
17854;SDS011;9053;53.358;6.382;2024-02-14T07:42:51;22.63;;;6.90;;
17854;SDS011;9053;53.358;6.382;2024-02-14T07:45:21;25.77;;;6.73;;
17854;SDS011;9053;53.358;6.382;2024-02-14T07:48:08;22.67;;;6.50;;
17854;SDS011;9053;53.358;6.382;2024-02-14T07:50:38;22.70;;;6.97;;
17854;SDS011;9053;53.358;6.382;2024-02-14T07:53:11;24.70;;;6.70;;
17854;SDS011;9053;53.358;6.382;2024-02-14T07:55:43;23.37;;;6.77;;
17854;SDS011;9053;53.358;6.382;2024-02-14T07:58:19;24.77;;;6.70;;
17854;SDS011;9053;53.358;6.382;2024-02-14T08:00:52;23.97;;;6.37;;
17854;SDS011;9053;53.358;6.382;2024-02-14T08:03:28;26.67;;;6.90;;
17854;SDS011;9053;53.358;6.382;2024-02-14T08:06:10;20.63;;;6.30;;
17854;SDS011;9053;53.358;6.382;2024-02-14T08:08:42;26.50;;;6.67;;
17854;SDS011;9053;53.358;6.382;2024-02-14T08:11:17;28.90;;;6.90;;
17854;SDS011;9053;53.358;6.382;2024-02-14T08:13:47;29.00;;;6.67;;
17854;SDS011;9053;53.358;6.382;2024-02-14T08:16:29;26.97;;;6.80;;
17854;SDS011;9053;53.358;6.382;2024-02-14T08:19:06;23.73;;;5.83;;
17854;SDS011;9053;53.358;6.382;2024-02-14T08:21:36;26.67;;;7.27;;
17854;SDS011;9053;53.358;6.382;2024-02-14T08:24:07;24.60;;;6.80;;
17854;SDS011;9053;53.358;6.382;2024-02-14T08:26:37;30.57;;;6.73;;
17854;SDS011;9053;53.358;6.382;2024-02-14T08:29:12;28.40;;;6.80;;
17854;SDS011;9053;53.358;6.382;2024-02-14T08:31:43;33.13;;;7.00;;
17854;SDS011;9053;53.358;6.382;2024-02-14T08:34:19;34.47;;;8.10;;
17854;SDS011;9053;53.358;6.382;2024-02-14T08:36:55;29.77;;;6.73;;
17854;SDS011;9053;53.358;6.382;2024-02-14T08:39:31;31.00;;;7.47;;
17854;SDS011;9053;53.358;6.382;2024-02-14T08:42:01;33.20;;;8.03;;
17854;SDS011;9053;53.358;6.382;2024-02-14T08:44:39;28.13;;;7.03;;
17854;SDS011;9053;53.358;6.382;2024-02-14T08:47:12;30.70;;;7.97;;
17854;SDS011;9053;53.358;6.382;2024-02-14T08:49:48;26.87;;;7.03;;
17854;SDS011;9053;53.358;6.382;2024-02-14T08:52:25;28.47;;;7.93;;
17854;SDS011;9053;53.358;6.382;2024-02-14T08:54:57;29.20;;;7.60;;
17854;SDS011;9053;53.358;6.382;2024-02-14T08:57:27;24.43;;;7.03;;
17854;SDS011;9053;53.358;6.382;2024-02-14T09:00:05;27.73;;;7.17;;
17854;SDS011;9053;53.358;6.382;2024-02-14T09:02:37;28.57;;;7.37;;
17854;SDS011;9053;53.358;6.382;2024-02-14T09:05:16;28.30;;;7.80;;
17854;SDS011;9053;53.358;6.382;2024-02-14T09:07:56;30.80;;;6.90;;
17854;SDS011;9053;53.358;6.382;2024-02-14T09:10:28;19.93;;;6.90;;
17854;SDS011;9053;53.358;6.382;2024-02-14T09:12:58;24.93;;;7.27;;
17854;SDS011;9053;53.358;6.382;2024-02-14T09:15:31;24.33;;;7.07;;
17854;SDS011;9053;53.358;6.382;2024-02-14T09:18:01;23.73;;;7.50;;
17854;SDS011;9053;53.358;6.382;2024-02-14T09:20:34;26.77;;;7.87;;
17854;SDS011;9053;53.358;6.382;2024-02-14T09:23:08;16.77;;;6.80;;
17854;SDS011;9053;53.358;6.382;2024-02-14T09:25:38;26.00;;;7.13;;
17854;SDS011;9053;53.358;6.382;2024-02-14T09:28:13;22.27;;;6.80;;
17854;SDS011;9053;53.358;6.382;2024-02-14T09:30:47;23.60;;;6.80;;
17854;SDS011;9053;53.358;6.382;2024-02-14T09:33:22;21.73;;;6.87;;
17854;SDS011;9053;53.358;6.382;2024-02-14T09:35:55;23.37;;;6.43;;
17854;SDS011;9053;53.358;6.382;2024-02-14T09:38:30;20.63;;;7.00;;
17854;SDS011;9053;53.358;6.382;2024-02-14T09:41:03;19.03;;;7.60;;
17854;SDS011;9053;53.358;6.382;2024-02-14T09:43:46;25.23;;;8.43;;
17854;SDS011;9053;53.358;6.382;2024-02-14T09:46:24;21.33;;;6.90;;
17854;SDS011;9053;53.358;6.382;2024-02-14T09:48:58;29.63;;;7.90;;
17854;SDS011;9053;53.358;6.382;2024-02-14T09:51:32;23.30;;;7.80;;
17854;SDS011;9053;53.358;6.382;2024-02-14T09:54:02;20.80;;;7.33;;
17854;SDS011;9053;53.358;6.382;2024-02-14T09:56:34;24.63;;;8.17;;
17854;SDS011;9053;53.358;6.382;2024-02-14T09:59:17;20.73;;;7.83;;
17854;SDS011;9053;53.358;6.382;2024-02-14T10:01:58;21.70;;;7.90;;
17854;SDS011;9053;53.358;6.382;2024-02-14T10:04:30;32.43;;;9.07;;
17854;SDS011;9053;53.358;6.382;2024-02-14T10:07:07;25.03;;;8.73;;
17854;SDS011;9053;53.358;6.382;2024-02-14T10:09:40;22.83;;;8.10;;
17854;SDS011;9053;53.358;6.382;2024-02-14T10:12:17;23.23;;;8.17;;
17854;SDS011;9053;53.358;6.382;2024-02-14T10:14:47;18.47;;;7.27;;
17854;SDS011;9053;53.358;6.382;2024-02-14T10:17:19;25.70;;;8.17;;
17854;SDS011;9053;53.358;6.382;2024-02-14T10:19:56;19.17;;;7.67;;
17854;SDS011;9053;53.358;6.382;2024-02-14T10:22:34;21.87;;;8.20;;
17854;SDS011;9053;53.358;6.382;2024-02-14T10:25:06;49.57;;;9.37;;
17854;SDS011;9053;53.358;6.382;2024-02-14T10:27:46;23.50;;;7.50;;
17854;SDS011;9053;53.358;6.382;2024-02-14T10:30:17;20.37;;;7.77;;
17854;SDS011;9053;53.358;6.382;2024-02-14T10:32:58;19.57;;;7.80;;
17854;SDS011;9053;53.358;6.382;2024-02-14T10:35:42;19.00;;;7.60;;
17854;SDS011;9053;53.358;6.382;2024-02-14T10:38:15;25.77;;;7.90;;
17854;SDS011;9053;53.358;6.382;2024-02-14T10:40:47;31.37;;;8.20;;
17854;SDS011;9053;53.358;6.382;2024-02-14T10:43:18;18.50;;;8.03;;
17854;SDS011;9053;53.358;6.382;2024-02-14T10:45:48;17.47;;;7.13;;
17854;SDS011;9053;53.358;6.382;2024-02-14T10:48:36;17.03;;;6.70;;
17854;SDS011;9053;53.358;6.382;2024-02-14T10:51:12;13.20;;;6.20;;
17854;SDS011;9053;53.358;6.382;2024-02-14T10:53:48;16.73;;;5.90;;
17854;SDS011;9053;53.358;6.382;2024-02-14T10:56:24;11.47;;;6.43;;
17854;SDS011;9053;53.358;6.382;2024-02-14T10:58:59;11.23;;;5.90;;
17854;SDS011;9053;53.358;6.382;2024-02-14T11:01:31;11.13;;;6.03;;
17854;SDS011;9053;53.358;6.382;2024-02-14T11:04:03;10.73;;;6.00;;
17854;SDS011;9053;53.358;6.382;2024-02-14T11:06:44;14.63;;;7.03;;
17854;SDS011;9053;53.358;6.382;2024-02-14T11:09:20;10.73;;;7.27;;
17854;SDS011;9053;53.358;6.382;2024-02-14T11:11:58;11.23;;;7.17;;
17854;SDS011;9053;53.358;6.382;2024-02-14T11:14:33;13.20;;;8.00;;
17854;SDS011;9053;53.358;6.382;2024-02-14T11:17:08;15.57;;;8.13;;
17854;SDS011;9053;53.358;6.382;2024-02-14T11:19:39;16.03;;;8.70;;
17854;SDS011;9053;53.358;6.382;2024-02-14T11:22:16;13.37;;;8.10;;
17854;SDS011;9053;53.358;6.382;2024-02-14T11:24:51;16.57;;;8.93;;
17854;SDS011;9053;53.358;6.382;2024-02-14T11:27:24;15.80;;;8.83;;
17854;SDS011;9053;53.358;6.382;2024-02-14T11:30:00;14.77;;;8.43;;
17854;SDS011;9053;53.358;6.382;2024-02-14T11:32:33;23.60;;;11.80;;
17854;SDS011;9053;53.358;6.382;2024-02-14T11:35:06;15.00;;;9.10;;
17854;SDS011;9053;53.358;6.382;2024-02-14T11:37:42;13.90;;;8.47;;
17854;SDS011;9053;53.358;6.382;2024-02-14T11:40:16;18.40;;;9.80;;
17854;SDS011;9053;53.358;6.382;2024-02-14T11:42:51;15.67;;;10.00;;
17854;SDS011;9053;53.358;6.382;2024-02-14T11:45:24;18.87;;;9.50;;
17854;SDS011;9053;53.358;6.382;2024-02-14T11:47:58;17.60;;;9.53;;
17854;SDS011;9053;53.358;6.382;2024-02-14T11:50:30;17.27;;;8.97;;
17854;SDS011;9053;53.358;6.382;2024-02-14T11:53:03;13.60;;;8.13;;
17854;SDS011;9053;53.358;6.382;2024-02-14T11:55:41;15.90;;;8.27;;
17854;SDS011;9053;53.358;6.382;2024-02-14T11:58:13;13.50;;;8.27;;
17854;SDS011;9053;53.358;6.382;2024-02-14T12:00:46;14.17;;;8.27;;
17854;SDS011;9053;53.358;6.382;2024-02-14T12:03:21;11.97;;;6.77;;
17854;SDS011;9053;53.358;6.382;2024-02-14T12:05:53;12.23;;;6.17;;
17854;SDS011;9053;53.358;6.382;2024-02-14T12:08:44;10.00;;;5.97;;
17854;SDS011;9053;53.358;6.382;2024-02-14T12:11:20;7.90;;;5.60;;
17854;SDS011;9053;53.358;6.382;2024-02-14T12:13:54;7.70;;;4.87;;
17854;SDS011;9053;53.358;6.382;2024-02-14T12:16:33;6.83;;;4.70;;
17854;SDS011;9053;53.358;6.382;2024-02-14T12:19:04;5.43;;;4.17;;
17854;SDS011;9053;53.358;6.382;2024-02-14T12:21:40;6.23;;;4.20;;
17854;SDS011;9053;53.358;6.382;2024-02-14T12:24:12;8.60;;;5.03;;
17854;SDS011;9053;53.358;6.382;2024-02-14T12:26:51;5.97;;;4.50;;
17854;SDS011;9053;53.358;6.382;2024-02-14T12:29:24;7.67;;;4.63;;
17854;SDS011;9053;53.358;6.382;2024-02-14T12:32:02;7.77;;;4.80;;
17854;SDS011;9053;53.358;6.382;2024-02-14T12:34:37;6.30;;;4.83;;
17854;SDS011;9053;53.358;6.382;2024-02-14T12:37:13;6.37;;;4.77;;
17854;SDS011;9053;53.358;6.382;2024-02-14T12:39:44;7.43;;;5.20;;
17854;SDS011;9053;53.358;6.382;2024-02-14T12:42:19;7.70;;;5.73;;
17854;SDS011;9053;53.358;6.382;2024-02-14T12:44:54;6.67;;;5.40;;
17854;SDS011;9053;53.358;6.382;2024-02-14T12:47:24;6.87;;;5.30;;
17854;SDS011;9053;53.358;6.382;2024-02-14T12:49:58;5.90;;;4.90;;
17854;SDS011;9053;53.358;6.382;2024-02-14T12:52:28;6.30;;;5.10;;
17854;SDS011;9053;53.358;6.382;2024-02-14T12:54:58;6.87;;;5.03;;
17854;SDS011;9053;53.358;6.382;2024-02-14T12:57:31;7.43;;;5.37;;
17854;SDS011;9053;53.358;6.382;2024-02-14T13:00:06;7.87;;;6.17;;
17854;SDS011;9053;53.358;6.382;2024-02-14T13:02:45;9.63;;;6.20;;
17854;SDS011;9053;53.358;6.382;2024-02-14T13:05:26;7.33;;;5.70;;
17854;SDS011;9053;53.358;6.382;2024-02-14T13:08:00;8.60;;;5.70;;
17854;SDS011;9053;53.358;6.382;2024-02-14T13:10:32;10.33;;;6.20;;
17854;SDS011;9053;53.358;6.382;2024-02-14T13:13:05;7.87;;;6.10;;
17854;SDS011;9053;53.358;6.382;2024-02-14T13:15:38;8.47;;;5.50;;
17854;SDS011;9053;53.358;6.382;2024-02-14T13:18:23;11.33;;;6.47;;
17854;SDS011;9053;53.358;6.382;2024-02-14T13:20:56;11.60;;;6.70;;
17854;SDS011;9053;53.358;6.382;2024-02-14T13:23:26;8.53;;;5.60;;
17854;SDS011;9053;53.358;6.382;2024-02-14T13:25:59;9.87;;;6.70;;
17854;SDS011;9053;53.358;6.382;2024-02-14T13:28:33;9.47;;;6.27;;
17854;SDS011;9053;53.358;6.382;2024-02-14T13:31:10;10.37;;;6.70;;
17854;SDS011;9053;53.358;6.382;2024-02-14T13:33:41;9.40;;;6.33;;
17854;SDS011;9053;53.358;6.382;2024-02-14T13:36:14;10.97;;;6.57;;
17854;SDS011;9053;53.358;6.382;2024-02-14T13:38:47;7.87;;;5.70;;
17854;SDS011;9053;53.358;6.382;2024-02-14T13:41:17;9.37;;;6.63;;
17854;SDS011;9053;53.358;6.382;2024-02-14T13:43:50;10.40;;;6.77;;
17854;SDS011;9053;53.358;6.382;2024-02-14T13:46:20;10.00;;;6.30;;
17854;SDS011;9053;53.358;6.382;2024-02-14T13:48:54;11.33;;;6.77;;
17854;SDS011;9053;53.358;6.382;2024-02-14T13:51:24;11.70;;;7.43;;
17854;SDS011;9053;53.358;6.382;2024-02-14T13:53:57;12.03;;;8.10;;
17854;SDS011;9053;53.358;6.382;2024-02-14T13:56:30;12.17;;;8.23;;
17854;SDS011;9053;53.358;6.382;2024-02-14T13:59:16;15.43;;;8.23;;
17854;SDS011;9053;53.358;6.382;2024-02-14T14:01:47;14.57;;;8.90;;
17854;SDS011;9053;53.358;6.382;2024-02-14T14:04:30;12.97;;;8.37;;
17854;SDS011;9053;53.358;6.382;2024-02-14T14:07:06;14.00;;;8.80;;
17854;SDS011;9053;53.358;6.382;2024-02-14T14:09:41;15.63;;;9.47;;
17854;SDS011;9053;53.358;6.382;2024-02-14T14:12:19;13.60;;;9.30;;
17854;SDS011;9053;53.358;6.382;2024-02-14T14:14:54;13.67;;;9.23;;
17854;SDS011;9053;53.358;6.382;2024-02-14T14:17:28;11.13;;;8.30;;
17854;SDS011;9053;53.358;6.382;2024-02-14T14:20:00;13.13;;;8.73;;
17854;SDS011;9053;53.358;6.382;2024-02-14T14:22:31;13.17;;;8.87;;
17854;SDS011;9053;53.358;6.382;2024-02-14T14:25:08;14.27;;;7.80;;
17854;SDS011;9053;53.358;6.382;2024-02-14T14:27:38;12.20;;;7.73;;
17854;SDS011;9053;53.358;6.382;2024-02-14T14:30:14;9.67;;;6.87;;
17854;SDS011;9053;53.358;6.382;2024-02-14T14:32:45;8.80;;;6.40;;
17854;SDS011;9053;53.358;6.382;2024-02-14T14:35:16;9.40;;;6.30;;
17854;SDS011;9053;53.358;6.382;2024-02-14T14:37:51;10.10;;;6.00;;
17854;SDS011;9053;53.358;6.382;2024-02-14T14:40:28;8.13;;;5.90;;
17854;SDS011;9053;53.358;6.382;2024-02-14T14:43:01;8.33;;;5.67;;
17854;SDS011;9053;53.358;6.382;2024-02-14T14:45:36;8.67;;;6.10;;
17854;SDS011;9053;53.358;6.382;2024-02-14T14:48:09;7.87;;;5.60;;
17854;SDS011;9053;53.358;6.382;2024-02-14T14:50:52;7.10;;;5.50;;
17854;SDS011;9053;53.358;6.382;2024-02-14T14:53:31;6.73;;;5.07;;
17854;SDS011;9053;53.358;6.382;2024-02-14T14:56:07;5.97;;;4.90;;
17854;SDS011;9053;53.358;6.382;2024-02-14T14:58:37;8.10;;;5.60;;
17854;SDS011;9053;53.358;6.382;2024-02-14T15:01:15;6.70;;;5.30;;
17854;SDS011;9053;53.358;6.382;2024-02-14T15:03:52;6.83;;;5.17;;
17854;SDS011;9053;53.358;6.382;2024-02-14T15:06:26;6.20;;;5.00;;
17854;SDS011;9053;53.358;6.382;2024-02-14T15:08:57;5.47;;;4.70;;
17854;SDS011;9053;53.358;6.382;2024-02-14T15:11:30;5.37;;;4.70;;
17854;SDS011;9053;53.358;6.382;2024-02-14T15:14:00;5.47;;;4.30;;
17854;SDS011;9053;53.358;6.382;2024-02-14T15:16:38;4.37;;;3.83;;
17854;SDS011;9053;53.358;6.382;2024-02-14T15:19:21;4.03;;;3.50;;
17854;SDS011;9053;53.358;6.382;2024-02-14T15:21:53;3.67;;;3.33;;
17854;SDS011;9053;53.358;6.382;2024-02-14T15:24:28;3.80;;;3.37;;
17854;SDS011;9053;53.358;6.382;2024-02-14T15:27:04;3.90;;;3.50;;
17854;SDS011;9053;53.358;6.382;2024-02-14T15:29:38;4.03;;;3.10;;
17854;SDS011;9053;53.358;6.382;2024-02-14T15:32:26;4.77;;;3.50;;
17854;SDS011;9053;53.358;6.382;2024-02-14T15:35:08;4.17;;;3.67;;
17854;SDS011;9053;53.358;6.382;2024-02-14T15:37:49;4.63;;;3.70;;
17854;SDS011;9053;53.358;6.382;2024-02-14T15:40:26;6.53;;;4.20;;
17854;SDS011;9053;53.358;6.382;2024-02-14T15:42:59;5.33;;;3.90;;